Time;durP1;ratioP1;P1;durP2;ratioP2;P2;SDS_P1;SDS_P2;PMS_P1;PMS_P2;Temp;Humidity;BMP_temperature;BMP_pressure;BME280_temperature;BME280_humidity;BME280_pressure;Samples;Min_cycle;Max_cycle;Signal;HPM_P1;HPM_P2
2022/03/10 00:02:15;;;;;;;3.75;1.30;;;;;;;;;;5010234;28;20099;-56
2022/03/10 00:04:41;;;;;;;6.88;1.55;;;;;;;;;;5000055;28;20046;-55
2022/03/10 00:07:07;;;;;;;3.40;1.08;;;;;;;;;;5016885;28;20033;-57
2022/03/10 00:09:33;;;;;;;3.88;1.23;;;;;;;;;;5003054;28;20542;-56
2022/03/10 00:11:59;;;;;;;6.10;1.42;;;;;;;;;;4999684;28;20042;-55
2022/03/10 00:14:25;;;;;;;7.07;1.85;;;;;;;;;;4999076;28;20034;-56
2022/03/10 00:16:51;;;;;;;7.18;1.48;;;;;;;;;;5001061;28;20668;-57
2022/03/10 00:19:17;;;;;;;4.50;1.25;;;;;;;;;;4999491;28;20037;-56
2022/03/10 00:21:44;;;;;;;15.90;1.67;;;;;;;;;;4998904;28;20029;-56
2022/03/10 00:24:10;;;;;;;34.28;1.92;;;;;;;;;;5004310;28;20041;-56
2022/03/10 00:26:39;;;;;;;7.15;1.30;;;;;;;;;;5002505;28;20034;-55
2022/03/10 00:29:05;;;;;;;4.55;1.20;;;;;;;;;;5003273;28;20049;-55
2022/03/10 00:31:31;;;;;;;9.20;1.33;;;;;;;;;;5000615;28;20088;-57
2022/03/10 00:33:57;;;;;;;9.45;1.77;;;;;;;;;;5000277;28;20065;-54
2022/03/10 00:36:23;;;;;;;3.40;1.25;;;;;;;;;;5002374;28;20909;-55
2022/03/10 00:38:49;;;;;;;5.70;1.50;;;;;;;;;;5006231;28;20343;-57
2022/03/10 00:41:15;;;;;;;2.17;0.88;;;;;;;;;;5005378;28;20137;-55
2022/03/10 00:43:41;;;;;;;4.50;0.88;;;;;;;;;;5005610;28;20113;-57
2022/03/10 00:46:07;;;;;;;9.95;1.20;;;;;;;;;;5006887;28;20046;-56
2022/03/10 00:48:33;;;;;;;3.22;0.90;;;;;;;;;;5001632;28;20089;-55
2022/03/10 00:50:59;;;;;;;1.13;0.60;;;;;;;;;;5001474;28;20057;-55
2022/03/10 00:53:25;;;;;;;3.47;1.15;;;;;;;;;;5010189;28;20074;-56
2022/03/10 00:55:51;;;;;;;4.40;1.00;;;;;;;;;;5005018;28;20117;-56
2022/03/10 00:58:17;;;;;;;8.73;1.63;;;;;;;;;;5000059;28;21915;-56
2022/03/10 01:00:43;;;;;;;2.15;0.77;;;;;;;;;;5004581;28;20053;-56
2022/03/10 01:03:09;;;;;;;5.20;1.13;;;;;;;;;;5004177;28;20042;-58
2022/03/10 01:05:35;;;;;;;6.10;1.73;;;;;;;;;;4996986;28;20046;-55
2022/03/10 01:08:01;;;;;;;7.88;1.08;;;;;;;;;;4999712;28;20099;-56
2022/03/10 01:10:27;;;;;;;4.63;1.15;;;;;;;;;;5001352;28;20066;-56
2022/03/10 01:12:53;;;;;;;3.05;0.98;;;;;;;;;;5005448;28;20029;-56
2022/03/10 01:15:20;;;;;;;5.22;1.38;;;;;;;;;;5005386;28;20106;-56
2022/03/10 01:17:46;;;;;;;7.07;1.00;;;;;;;;;;5007579;28;20045;-54
2022/03/10 01:20:12;;;;;;;3.42;1.17;;;;;;;;;;5001463;28;20420;-55
2022/03/10 01:22:38;;;;;;;5.18;0.82;;;;;;;;;;5000636;28;20082;-55
2022/03/10 01:25:05;;;;;;;3.58;1.00;;;;;;;;;;5000333;28;20037;-56
2022/03/10 01:27:31;;;;;;;3.60;1.00;;;;;;;;;;5000370;28;20129;-55
2022/03/10 01:29:57;;;;;;;12.25;1.80;;;;;;;;;;5000415;28;20090;-54
2022/03/10 01:32:23;;;;;;;6.20;1.08;;;;;;;;;;5014340;28;20075;-57
2022/03/10 01:34:49;;;;;;;18.10;0.80;;;;;;;;;;4998492;28;20038;-56
2022/03/10 01:37:15;;;;;;;3.15;0.80;;;;;;;;;;4998930;28;20094;-53
2022/03/10 01:39:41;;;;;;;10.43;1.25;;;;;;;;;;4997167;28;20050;-54
2022/03/10 01:42:07;;;;;;;2.42;0.77;;;;;;;;;;5003036;28;20060;-54
2022/03/10 01:44:34;;;;;;;3.75;0.68;;;;;;;;;;4995218;28;20045;-57
2022/03/10 01:47:01;;;;;;;2.35;0.90;;;;;;;;;;4999390;28;20052;-56
2022/03/10 01:49:27;;;;;;;18.02;1.40;;;;;;;;;;4996789;28;20025;-54
2022/03/10 01:51:53;;;;;;;5.35;1.48;;;;;;;;;;4995933;28;20089;-55
2022/03/10 01:54:20;;;;;;;9.43;1.00;;;;;;;;;;5004585;28;20048;-56
2022/03/10 01:56:47;;;;;;;8.75;1.15;;;;;;;;;;5010930;28;20105;-56
2022/03/10 01:59:13;;;;;;;1.75;0.80;;;;;;;;;;5002281;28;20114;-57
2022/03/10 02:01:39;;;;;;;2.15;0.98;;;;;;;;;;5003934;28;20046;-56
2022/03/10 02:04:05;;;;;;;2.10;0.90;;;;;;;;;;5001818;28;20030;-57
2022/03/10 02:06:31;;;;;;;9.63;1.50;;;;;;;;;;4999402;28;20104;-57
2022/03/10 02:11:42;;;;;;;2.90;1.33;;;;;;;;;;4996958;28;20427;-57
2022/03/10 02:19:36;;;;;;;3.88;1.88;;;;;;;;;;4996632;28;20522;-56
2022/03/10 02:22:09;;;;;;;19.08;1.42;;;;;;;;;;4999014;28;20038;-54
2022/03/10 02:24:39;;;;;;;7.47;1.48;;;;;;;;;;4996700;28;20042;-55
2022/03/10 02:27:21;;;;;;;1.73;0.77;;;;;;;;;;4998743;28;20089;-55
2022/03/10 02:29:48;;;;;;;5.90;0.95;;;;;;;;;;4996095;28;20057;-55
2022/03/10 02:32:14;;;;;;;2.72;0.95;;;;;;;;;;5000064;28;21034;-54
2022/03/10 02:34:41;;;;;;;3.35;1.33;;;;;;;;;;4993271;28;20055;-56
2022/03/10 02:37:08;;;;;;;2.45;1.27;;;;;;;;;;5021028;28;20050;-56
2022/03/10 02:39:34;;;;;;;25.25;1.35;;;;;;;;;;4997278;28;20050;-58
2022/03/10 02:42:00;;;;;;;5.85;1.20;;;;;;;;;;4999846;28;20120;-56
2022/03/10 02:44:26;;;;;;;6.65;1.67;;;;;;;;;;4996598;28;20042;-56
2022/03/10 02:46:52;;;;;;;4.85;1.52;;;;;;;;;;4997154;28;20125;-58
2022/03/10 02:49:18;;;;;;;2.30;0.93;;;;;;;;;;5012041;28;20046;-57
2022/03/10 02:51:44;;;;;;;2.08;0.90;;;;;;;;;;5027393;28;20044;-57
2022/03/10 02:54:10;;;;;;;1.30;0.70;;;;;;;;;;4999706;28;20074;-56
2022/03/10 02:56:36;;;;;;;2.60;1.15;;;;;;;;;;4998520;28;20488;-57
2022/03/10 02:59:02;;;;;;;5.75;1.30;;;;;;;;;;4998182;28;20133;-58
2022/03/10 03:01:29;;;;;;;2.65;1.15;;;;;;;;;;5001782;28;20035;-57
2022/03/10 03:03:55;;;;;;;11.88;1.60;;;;;;;;;;5004250;28;20038;-56
2022/03/10 03:06:21;;;;;;;1.15;0.60;;;;;;;;;;5000915;28;20046;-57
2022/03/10 03:08:47;;;;;;;1.55;0.93;;;;;;;;;;5009209;28;20029;-55
2022/03/10 03:11:13;;;;;;;2.92;1.27;;;;;;;;;;5001603;28;20144;-57
2022/03/10 03:13:39;;;;;;;2.85;1.20;;;;;;;;;;5016881;28;20042;-57
2022/03/10 03:16:05;;;;;;;6.55;1.08;;;;;;;;;;5003031;28;20084;-57
2022/03/10 03:18:35;;;;;;;3.17;1.15;;;;;;;;;;5002881;28;20065;-56
2022/03/10 03:21:01;;;;;;;4.63;1.33;;;;;;;;;;5007674;28;20653;-58
2022/03/10 03:23:27;;;;;;;5.35;1.38;;;;;;;;;;5021840;28;20046;-55
2022/03/10 03:25:53;;;;;;;2.45;1.15;;;;;;;;;;5008688;28;20061;-56
2022/03/10 03:28:22;;;;;;;5.50;1.65;;;;;;;;;;5007345;28;20510;-56
2022/03/10 03:30:48;;;;;;;2.33;1.23;;;;;;;;;;5008245;28;20038;-56
2022/03/10 03:33:14;;;;;;;2.38;1.13;;;;;;;;;;5011022;28;20164;-57
2022/03/10 03:35:41;;;;;;;0.95;0.70;;;;;;;;;;5010104;28;20101;-54
2022/03/10 03:38:07;;;;;;;5.78;0.90;;;;;;;;;;5014666;28;20038;-55
2022/03/10 03:40:33;;;;;;;4.93;1.05;;;;;;;;;;5002582;28;20049;-55
2022/03/10 03:43:00;;;;;;;1.92;0.77;;;;;;;;;;5002313;28;20052;-58
2022/03/10 03:45:26;;;;;;;4.10;1.70;;;;;;;;;;4999053;28;20034;-55
2022/03/10 03:47:52;;;;;;;3.33;2.00;;;;;;;;;;5002109;28;21795;-55
2022/03/10 03:50:18;;;;;;;3.00;1.67;;;;;;;;;;5003946;28;20484;-53
2022/03/10 03:52:44;;;;;;;6.00;1.75;;;;;;;;;;5001365;28;20041;-56
2022/03/10 03:55:10;;;;;;;1.45;0.80;;;;;;;;;;4999119;28;20049;-53
2022/03/10 03:57:37;;;;;;;15.73;1.90;;;;;;;;;;5000572;28;20088;-56
2022/03/10 04:00:04;;;;;;;1.38;0.75;;;;;;;;;;5000046;28;20050;-55
2022/03/10 04:02:30;;;;;;;2.40;0.93;;;;;;;;;;5000139;28;20069;-56
2022/03/10 04:04:56;;;;;;;2.50;1.15;;;;;;;;;;4999754;28;20037;-56
2022/03/10 04:07:22;;;;;;;0.88;0.55;;;;;;;;;;4999916;28;20116;-56
2022/03/10 04:09:48;;;;;;;1.63;0.85;;;;;;;;;;5001091;28;20557;-56
2022/03/10 04:12:15;;;;;;;2.13;0.90;;;;;;;;;;5003660;28;20160;-58
2022/03/10 04:14:41;;;;;;;1.63;0.80;;;;;;;;;;5001926;28;20204;-56
2022/03/10 04:17:07;;;;;;;1.27;0.80;;;;;;;;;;5006493;28;20563;-53
2022/03/10 04:19:32;;;;;;;1.17;0.75;;;;;;;;;;5002193;28;20189;-57
2022/03/10 04:21:59;;;;;;;1.00;0.60;;;;;;;;;;5002820;28;20040;-55
2022/03/10 04:24:24;;;;;;;2.42;1.23;;;;;;;;;;5001439;28;20042;-56
2022/03/10 04:26:50;;;;;;;2.45;1.02;;;;;;;;;;5002406;28;20962;-56
2022/03/10 04:29:16;;;;;;;3.58;1.40;;;;;;;;;;5001577;28;20053;-54
2022/03/10 04:31:42;;;;;;;8.18;1.30;;;;;;;;;;5014228;28;20042;-54
2022/03/10 04:34:08;;;;;;;5.13;1.48;;;;;;;;;;5001756;28;20037;-57
2022/03/10 04:36:34;;;;;;;1.13;0.55;;;;;;;;;;5002499;28;20038;-53
2022/03/10 04:39:00;;;;;;;5.72;0.65;;;;;;;;;;5021729;28;20069;-53
2022/03/10 04:41:26;;;;;;;7.97;1.48;;;;;;;;;;5003767;28;20054;-55
2022/03/10 04:43:52;;;;;;;4.57;0.98;;;;;;;;;;5003284;28;20135;-56
2022/03/10 04:46:18;;;;;;;1.30;0.77;;;;;;;;;;5009187;28;20034;-55
2022/03/10 04:48:44;;;;;;;3.00;1.20;;;;;;;;;;5011519;28;20052;-57
2022/03/10 04:51:10;;;;;;;2.33;1.27;;;;;;;;;;5005573;28;20046;-54
2022/03/10 04:53:36;;;;;;;1.27;0.65;;;;;;;;;;4999834;28;20037;-56
2022/03/10 04:56:02;;;;;;;1.55;0.73;;;;;;;;;;5004787;28;20034;-56
2022/03/10 04:58:27;;;;;;;4.15;1.35;;;;;;;;;;5003828;28;20081;-54
2022/03/10 05:00:54;;;;;;;1.85;1.00;;;;;;;;;;5005677;28;20061;-56
2022/03/10 05:03:19;;;;;;;1.08;0.60;;;;;;;;;;5011718;28;20176;-56
2022/03/10 05:05:48;;;;;;;11.43;1.23;;;;;;;;;;5012994;28;20057;-57
2022/03/10 05:08:14;;;;;;;1.55;0.80;;;;;;;;;;5050444;28;20056;-57
2022/03/10 05:10:40;;;;;;;2.78;1.23;;;;;;;;;;5028818;28;20084;-58
2022/03/10 05:13:06;;;;;;;1.88;0.85;;;;;;;;;;5013336;28;20042;-57
2022/03/10 05:15:32;;;;;;;2.10;0.98;;;;;;;;;;5012805;28;20142;-57
2022/03/10 05:18:03;;;;;;;3.30;1.17;;;;;;;;;;5001095;28;20035;-58
2022/03/10 05:20:30;;;;;;;6.97;1.75;;;;;;;;;;5001797;28;20127;-57
2022/03/10 05:22:57;;;;;;;3.92;1.10;;;;;;;;;;5002997;28;20045;-55
2022/03/10 05:25:42;;;;;;;3.25;1.25;;;;;;;;;;4999478;28;20509;-55
2022/03/10 05:28:14;;;;;;;3.05;0.70;;;;;;;;;;5001202;28;20392;-55
2022/03/10 05:30:58;;;;;;;3.10;0.98;;;;;;;;;;5041198;28;20060;-55
2022/03/10 05:33:24;;;;;;;2.20;1.02;;;;;;;;;;5033315;28;20559;-55
2022/03/10 05:35:50;;;;;;;10.07;1.55;;;;;;;;;;5022570;28;20138;-55
2022/03/10 05:38:16;;;;;;;3.85;1.02;;;;;;;;;;5039274;28;21759;-55
2022/03/10 05:40:41;;;;;;;4.30;1.50;;;;;;;;;;5037245;28;20063;-56
2022/03/10 05:43:07;;;;;;;2.00;1.00;;;;;;;;;;5037014;28;20418;-56
2022/03/10 05:45:33;;;;;;;1.58;0.70;;;;;;;;;;5035514;28;20079;-57
2022/03/10 05:47:59;;;;;;;12.63;1.13;;;;;;;;;;5031454;28;20422;-57
2022/03/10 05:50:26;;;;;;;3.80;1.30;;;;;;;;;;5033202;28;20060;-59
2022/03/10 05:52:52;;;;;;;2.78;1.02;;;;;;;;;;5035323;28;20042;-54
2022/03/10 05:55:19;;;;;;;3.38;1.27;;;;;;;;;;5032888;28;20036;-57
2022/03/10 05:57:46;;;;;;;4.50;1.40;;;;;;;;;;5034155;28;20079;-56
2022/03/10 06:00:14;;;;;;;1.80;0.75;;;;;;;;;;5036316;28;20053;-57
2022/03/10 06:02:40;;;;;;;35.90;1.55;;;;;;;;;;5007433;28;20880;-57
2022/03/10 06:05:06;;;;;;;6.68;1.05;;;;;;;;;;4997723;28;20042;-56
2022/03/10 06:07:32;;;;;;;1.67;0.80;;;;;;;;;;4996848;28;20034;-56
2022/03/10 06:09:58;;;;;;;9.10;1.38;;;;;;;;;;4998641;28;20037;-57
2022/03/10 06:12:26;;;;;;;1.73;0.82;;;;;;;;;;4997271;28;20112;-55
2022/03/10 06:14:55;;;;;;;1.45;0.80;;;;;;;;;;4995594;28;20126;-59
2022/03/10 06:17:21;;;;;;;1.77;0.80;;;;;;;;;;4999711;28;20050;-57
2022/03/10 06:19:48;;;;;;;16.02;0.90;;;;;;;;;;4995025;28;20524;-55
2022/03/10 06:22:20;;;;;;;1.55;0.93;;;;;;;;;;4995925;28;20041;-58
2022/03/10 06:24:47;;;;;;;5.43;1.17;;;;;;;;;;4995663;28;20042;-56
2022/03/10 06:27:16;;;;;;;1.25;0.68;;;;;;;;;;4999965;28;20041;-58
2022/03/10 06:29:42;;;;;;;0.75;0.40;;;;;;;;;;4996165;28;20114;-56
2022/03/10 06:32:08;;;;;;;4.40;1.63;;;;;;;;;;4997559;28;20041;-58
2022/03/10 06:34:37;;;;;;;1.48;0.60;;;;;;;;;;4998105;28;20041;-57
2022/03/10 06:37:03;;;;;;;1.75;0.98;;;;;;;;;;4995069;28;20041;-58
2022/03/10 06:39:29;;;;;;;5.28;1.30;;;;;;;;;;4999243;28;20038;-56
2022/03/10 06:41:55;;;;;;;2.10;0.90;;;;;;;;;;4996186;28;20038;-58
2022/03/10 06:44:21;;;;;;;2.10;0.93;;;;;;;;;;4995189;28;20888;-58
2022/03/10 06:46:47;;;;;;;0.75;0.45;;;;;;;;;;4998499;28;20045;-56
2022/03/10 06:49:13;;;;;;;0.85;0.52;;;;;;;;;;5001596;28;20120;-58
2022/03/10 06:51:39;;;;;;;1.38;0.60;;;;;;;;;;4996942;28;20046;-58
2022/03/10 06:54:05;;;;;;;7.35;0.98;;;;;;;;;;4997223;28;20072;-57
2022/03/10 06:56:31;;;;;;;0.73;0.50;;;;;;;;;;4997678;28;20038;-57
2022/03/10 06:58:57;;;;;;;1.10;0.60;;;;;;;;;;4997847;28;20074;-58
2022/03/10 07:01:23;;;;;;;2.17;0.55;;;;;;;;;;4997528;28;20507;-57
2022/03/10 07:03:49;;;;;;;2.35;0.75;;;;;;;;;;5002915;28;20049;-59
2022/03/10 07:06:15;;;;;;;0.30;0.30;;;;;;;;;;4999407;28;20053;-58
2022/03/10 07:08:41;;;;;;;3.33;0.68;;;;;;;;;;5001454;28;20073;-58
2022/03/10 07:11:07;;;;;;;0.65;0.40;;;;;;;;;;5001070;28;20082;-59
2022/03/10 07:13:35;;;;;;;0.80;0.47;;;;;;;;;;4999364;28;20143;-57
2022/03/10 07:16:01;;;;;;;0.93;0.45;;;;;;;;;;5004649;28;20087;-57
2022/03/10 07:18:27;;;;;;;2.22;0.68;;;;;;;;;;5017126;28;20054;-56
2022/03/10 07:20:53;;;;;;;15.88;0.82;;;;;;;;;;5000177;28;20085;-57
2022/03/10 07:23:19;;;;;;;0.95;0.50;;;;;;;;;;5003549;28;20034;-57
2022/03/10 07:25:45;;;;;;;4.68;0.50;;;;;;;;;;5001423;28;20046;-57
2022/03/10 07:28:11;;;;;;;1.08;0.45;;;;;;;;;;5001998;28;20068;-55
2022/03/10 07:30:37;;;;;;;2.30;0.60;;;;;;;;;;5000011;28;20497;-55
2022/03/10 07:33:03;;;;;;;0.82;0.45;;;;;;;;;;5001285;28;20046;-57
2022/03/10 07:35:29;;;;;;;1.45;0.50;;;;;;;;;;5003042;28;20058;-55
2022/03/10 07:37:58;;;;;;;2.75;0.70;;;;;;;;;;5004107;28;20111;-56
2022/03/10 07:40:24;;;;;;;1.92;0.50;;;;;;;;;;5003082;28;20925;-56
2022/03/10 07:42:49;;;;;;;1.08;0.40;;;;;;;;;;5001077;28;20048;-57
2022/03/10 07:45:15;;;;;;;1.70;0.50;;;;;;;;;;5002580;28;20503;-56
2022/03/10 07:47:41;;;;;;;1.85;0.50;;;;;;;;;;5001601;28;20503;-56
2022/03/10 07:50:07;;;;;;;0.73;0.35;;;;;;;;;;5000822;28;20116;-56
2022/03/10 07:52:33;;;;;;;9.45;0.57;;;;;;;;;;4997901;28;20859;-57
2022/03/10 07:54:59;;;;;;;1.60;0.60;;;;;;;;;;5000382;28;20302;-57
2022/03/10 07:57:25;;;;;;;1.60;0.43;;;;;;;;;;5000684;28;20030;-58
2022/03/10 07:59:52;;;;;;;0.77;0.38;;;;;;;;;;5002510;28;20052;-56
2022/03/10 08:02:18;;;;;;;0.93;0.35;;;;;;;;;;5002677;28;20185;-55
2022/03/10 08:04:44;;;;;;;0.85;0.40;;;;;;;;;;5001508;28;20155;-57
2022/03/10 08:07:10;;;;;;;0.35;0.30;;;;;;;;;;5001492;28;20519;-57
2022/03/10 08:09:36;;;;;;;1.17;0.50;;;;;;;;;;5005168;28;20041;-57
2022/03/10 08:12:03;;;;;;;3.05;0.57;;;;;;;;;;5002476;28;20163;-57
2022/03/10 08:14:29;;;;;;;1.33;0.60;;;;;;;;;;5034689;28;20103;-57
2022/03/10 08:16:55;;;;;;;1.40;0.43;;;;;;;;;;5004575;28;20041;-57
2022/03/10 08:19:21;;;;;;;2.33;0.60;;;;;;;;;;5000936;28;20590;-57
2022/03/10 08:21:48;;;;;;;0.82;0.40;;;;;;;;;;5002986;28;20050;-56
2022/03/10 08:24:14;;;;;;;1.38;0.50;;;;;;;;;;5003009;28;20049;-57
2022/03/10 08:26:41;;;;;;;3.70;0.80;;;;;;;;;;5002641;28;20407;-55
2022/03/10 08:29:07;;;;;;;1.42;0.60;;;;;;;;;;5003966;28;20068;-54
2022/03/10 08:31:33;;;;;;;0.85;0.45;;;;;;;;;;5006164;28;20037;-57
2022/03/10 08:33:58;;;;;;;2.40;0.70;;;;;;;;;;5006882;28;20073;-56
2022/03/10 08:36:24;;;;;;;1.55;0.55;;;;;;;;;;5007672;28;20049;-57
2022/03/10 08:38:50;;;;;;;2.05;0.60;;;;;;;;;;5001864;28;20043;-57
2022/03/10 08:41:16;;;;;;;7.00;0.90;;;;;;;;;;4999408;28;20050;-57
2022/03/10 08:43:42;;;;;;;6.05;1.13;;;;;;;;;;5001140;28;20101;-56
2022/03/10 08:46:08;;;;;;;8.77;0.73;;;;;;;;;;5000991;28;20042;-57
2022/03/10 08:48:35;;;;;;;4.93;0.70;;;;;;;;;;5000897;28;20048;-58
2022/03/10 08:51:04;;;;;;;4.38;0.63;;;;;;;;;;5001148;28;20037;-57
2022/03/10 08:53:30;;;;;;;1.23;0.50;;;;;;;;;;4999671;28;20069;-58
2022/03/10 08:55:56;;;;;;;3.05;0.95;;;;;;;;;;4999349;28;20096;-58
2022/03/10 08:58:22;;;;;;;0.88;0.40;;;;;;;;;;4999698;28;20448;-57
2022/03/10 09:00:48;;;;;;;2.38;0.50;;;;;;;;;;4999069;28;20053;-57
2022/03/10 09:03:14;;;;;;;10.38;0.65;;;;;;;;;;5001513;28;20042;-57
2022/03/10 09:05:42;;;;;;;6.57;0.77;;;;;;;;;;4999066;28;20049;-57
2022/03/10 09:08:09;;;;;;;0.80;0.40;;;;;;;;;;5006610;28;20034;-56
2022/03/10 09:10:35;;;;;;;1.00;0.45;;;;;;;;;;4998778;28;20061;-54
2022/03/10 09:13:01;;;;;;;5.93;0.70;;;;;;;;;;4997420;28;20034;-57
2022/03/10 09:15:27;;;;;;;4.93;0.65;;;;;;;;;;4998842;28;20038;-57
2022/03/10 09:17:53;;;;;;;5.20;0.60;;;;;;;;;;4999012;28;20037;-55
2022/03/10 09:20:21;;;;;;;6.57;0.73;;;;;;;;;;4998563;28;20144;-56
2022/03/10 09:22:47;;;;;;;0.63;0.40;;;;;;;;;;4998781;28;20033;-55
2022/03/10 09:25:13;;;;;;;1.05;0.50;;;;;;;;;;4998132;28;21737;-56
2022/03/10 09:27:39;;;;;;;3.47;0.70;;;;;;;;;;4997753;28;20455;-56
2022/03/10 09:30:08;;;;;;;3.85;0.50;;;;;;;;;;5000616;28;20046;-56
2022/03/10 09:32:34;;;;;;;2.50;0.50;;;;;;;;;;5029288;28;20559;-56
2022/03/10 09:35:00;;;;;;;1.65;0.47;;;;;;;;;;4999712;28;20046;-57
2022/03/10 09:37:26;;;;;;;1.00;0.43;;;;;;;;;;4999139;28;20563;-56
2022/03/10 09:39:52;;;;;;;1.55;0.60;;;;;;;;;;4998530;28;20064;-56
2022/03/10 09:42:21;;;;;;;1.73;0.65;;;;;;;;;;4999525;28;20097;-54
2022/03/10 09:44:48;;;;;;;2.05;0.80;;;;;;;;;;4996922;28;20044;-55
2022/03/10 09:47:15;;;;;;;2.45;0.52;;;;;;;;;;5005830;28;20385;-54
2022/03/10 09:49:42;;;;;;;2.95;0.70;;;;;;;;;;4999332;28;20037;-54
2022/03/10 09:52:11;;;;;;;1.42;0.50;;;;;;;;;;4998538;28;20058;-56
2022/03/10 09:54:37;;;;;;;5.20;0.82;;;;;;;;;;4999074;28;20042;-56
2022/03/10 09:57:03;;;;;;;3.83;0.60;;;;;;;;;;4998965;28;20042;-56
2022/03/10 09:59:30;;;;;;;0.80;0.32;;;;;;;;;;4995854;28;20154;-56
2022/03/10 10:01:56;;;;;;;1.65;0.60;;;;;;;;;;5001566;28;20053;-57
2022/03/10 10:04:23;;;;;;;1.17;0.47;;;;;;;;;;5001592;28;20034;-56
2022/03/10 10:07:01;;;;;;;0.82;0.38;;;;;;;;;;4998406;28;20042;-56
2022/03/10 10:09:46;;;;;;;3.15;0.98;;;;;;;;;;5001870;28;20068;-57
2022/03/10 10:12:13;;;;;;;1.85;0.57;;;;;;;;;;5002019;28;20049;-56
2022/03/10 10:14:44;;;;;;;0.88;0.40;;;;;;;;;;5007672;28;20046;-57
2022/03/10 10:17:10;;;;;;;2.38;0.60;;;;;;;;;;5003870;28;20046;-56
2022/03/10 10:19:37;;;;;;;0.98;0.50;;;;;;;;;;4998832;28;20042;-57
2022/03/10 10:22:13;;;;;;;4.82;0.50;;;;;;;;;;4998415;28;20092;-57
2022/03/10 10:24:40;;;;;;;2.42;0.85;;;;;;;;;;4998206;28;20039;-56
2022/03/10 10:27:13;;;;;;;1.30;0.60;;;;;;;;;;4998943;28;20073;-56
2022/03/10 10:30:05;;;;;;;1.45;0.45;;;;;;;;;;4998320;28;20164;-56
2022/03/10 10:32:43;;;;;;;1.75;0.57;;;;;;;;;;4999566;28;20034;-57
2022/03/10 10:35:20;;;;;;;1.25;0.60;;;;;;;;;;5000015;28;20421;-55
2022/03/10 10:37:49;;;;;;;0.45;0.30;;;;;;;;;;4997234;28;20622;-57
2022/03/10 10:40:34;;;;;;;8.88;0.63;;;;;;;;;;4999546;28;20803;-57
2022/03/10 10:43:02;;;;;;;0.85;0.40;;;;;;;;;;4996680;28;20042;-57
2022/03/10 10:45:35;;;;;;;1.35;0.60;;;;;;;;;;5001360;28;20037;-56
2022/03/10 10:48:09;;;;;;;1.25;0.60;;;;;;;;;;5002641;28;20037;-57
2022/03/10 10:50:39;;;;;;;3.60;0.65;;;;;;;;;;5012279;28;20141;-56
2022/03/10 10:53:06;;;;;;;1.30;0.60;;;;;;;;;;4999634;28;22318;-56
2022/03/10 10:55:33;;;;;;;1.75;0.50;;;;;;;;;;4997921;28;20049;-57
2022/03/10 10:58:06;;;;;;;0.35;0.30;;;;;;;;;;4998425;28;20037;-56
2022/03/10 11:00:39;;;;;;;0.50;0.35;;;;;;;;;;4999712;28;20053;-57
2022/03/10 11:03:18;;;;;;;1.02;0.45;;;;;;;;;;4998377;28;20395;-56
2022/03/10 11:05:44;;;;;;;7.57;0.80;;;;;;;;;;4996711;28;20046;-55
2022/03/10 11:08:10;;;;;;;0.98;0.50;;;;;;;;;;5004967;28;20037;-57
2022/03/10 11:10:36;;;;;;;1.30;0.45;;;;;;;;;;4998246;28;20053;-57
2022/03/10 11:13:01;;;;;;;1.08;0.50;;;;;;;;;;4999466;28;20108;-55
2022/03/10 11:15:27;;;;;;;2.50;0.68;;;;;;;;;;4997365;28;20169;-54
2022/03/10 11:17:54;;;;;;;1.92;0.65;;;;;;;;;;5000245;28;20037;-56
2022/03/10 11:20:20;;;;;;;0.55;0.30;;;;;;;;;;5000139;28;20077;-57
2022/03/10 11:22:52;;;;;;;1.60;0.50;;;;;;;;;;5002628;28;20635;-58
2022/03/10 11:25:21;;;;;;;0.82;0.52;;;;;;;;;;4999978;28;20056;-57
2022/03/10 11:27:52;;;;;;;3.33;0.70;;;;;;;;;;4999372;28;20099;-56
2022/03/10 11:30:22;;;;;;;1.42;0.43;;;;;;;;;;4998467;28;20043;-54
2022/03/10 11:33:03;;;;;;;1.55;0.60;;;;;;;;;;4997410;28;20052;-55
2022/03/10 11:35:33;;;;;;;1.65;0.50;;;;;;;;;;4998881;28;20042;-56
2022/03/10 11:37:59;;;;;;;0.45;0.30;;;;;;;;;;4999118;28;22177;-57
2022/03/10 11:40:45;;;;;;;1.10;0.40;;;;;;;;;;4998725;28;20054;-56
2022/03/10 11:43:16;;;;;;;4.32;0.65;;;;;;;;;;4998616;28;20129;-57
2022/03/10 11:45:42;;;;;;;0.68;0.40;;;;;;;;;;4996337;28;20069;-57
2022/03/10 11:48:23;;;;;;;1.73;0.57;;;;;;;;;;5000479;28;20054;-57
2022/03/10 11:50:52;;;;;;;0.77;0.40;;;;;;;;;;5003576;28;20084;-56
2022/03/10 11:53:18;;;;;;;1.38;0.45;;;;;;;;;;5000070;28;20038;-57
2022/03/10 11:55:46;;;;;;;2.95;0.88;;;;;;;;;;5002584;28;20045;-57
2022/03/10 11:58:13;;;;;;;0.98;0.40;;;;;;;;;;5001487;28;20526;-57
2022/03/10 12:00:48;;;;;;;7.18;0.60;;;;;;;;;;5001304;28;20058;-55
2022/03/10 12:03:33;;;;;;;0.55;0.40;;;;;;;;;;4999951;28;20041;-57
2022/03/10 12:05:59;;;;;;;1.23;0.47;;;;;;;;;;5001931;28;20029;-57
2022/03/10 12:08:37;;;;;;;1.05;0.43;;;;;;;;;;4999650;28;20038;-58
2022/03/10 12:11:04;;;;;;;0.55;0.32;;;;;;;;;;4999789;28;20054;-56
2022/03/10 12:13:34;;;;;;;1.05;0.40;;;;;;;;;;5000455;28;20046;-55
2022/03/10 12:16:00;;;;;;;1.10;0.40;;;;;;;;;;5000332;28;20058;-55
2022/03/10 12:18:44;;;;;;;1.13;0.40;;;;;;;;;;4999681;28;20103;-58
2022/03/10 12:21:18;;;;;;;4.60;0.60;;;;;;;;;;5001038;28;20057;-54
2022/03/10 12:23:43;;;;;;;;;;;;;;;;;;5003067;28;20046;-56
2022/03/10 12:26:10;;;;;;;8.60;0.70;;;;;;;;;;5000966;28;19932;-56
2022/03/10 12:28:38;;;;;;;1.65;0.55;;;;;;;;;;5000342;28;20034;-56
2022/03/10 12:31:05;;;;;;;1.20;0.50;;;;;;;;;;5002885;28;20034;-56
2022/03/10 12:33:31;;;;;;;3.97;0.60;;;;;;;;;;5005672;28;20034;-57
2022/03/10 12:35:58;;;;;;;1.75;0.77;;;;;;;;;;5005988;28;20037;-56
2022/03/10 12:38:46;;;;;;;1.63;0.60;;;;;;;;;;5001488;28;20033;-57
2022/03/10 12:41:17;;;;;;;2.85;0.75;;;;;;;;;;5000498;28;20148;-58
2022/03/10 12:43:44;;;;;;;2.90;0.60;;;;;;;;;;5003898;28;20035;-56
2022/03/10 12:46:10;;;;;;;1.70;0.57;;;;;;;;;;5002171;28;20046;-56
2022/03/10 12:48:36;;;;;;;3.53;0.70;;;;;;;;;;5001496;28;20056;-57
2022/03/10 12:51:02;;;;;;;4.07;0.63;;;;;;;;;;5000246;28;20042;-57
2022/03/10 12:53:32;;;;;;;8.40;0.85;;;;;;;;;;5001231;28;20118;-57
2022/03/10 12:55:59;;;;;;;1.00;0.55;;;;;;;;;;5001726;28;20038;-60
2022/03/10 12:58:32;;;;;;;3.35;0.75;;;;;;;;;;5001838;28;20721;-57
2022/03/10 13:01:08;;;;;;;4.85;0.70;;;;;;;;;;5000124;28;20064;-57
2022/03/10 13:03:37;;;;;;;11.63;0.98;;;;;;;;;;4999577;28;20052;-57
2022/03/10 13:06:07;;;;;;;2.58;0.70;;;;;;;;;;4999833;28;20042;-56
2022/03/10 13:08:40;;;;;;;1.60;0.63;;;;;;;;;;5000338;28;20038;-58
2022/03/10 13:11:06;;;;;;;2.30;0.70;;;;;;;;;;5005276;28;20045;-57
2022/03/10 13:13:32;;;;;;;3.15;0.80;;;;;;;;;;5000484;28;20152;-58
2022/03/10 13:16:02;;;;;;;6.18;1.08;;;;;;;;;;5001736;28;20396;-56
2022/03/10 13:18:28;;;;;;;1.45;0.60;;;;;;;;;;4998440;28;20041;-57
2022/03/10 13:20:57;;;;;;;3.70;0.57;;;;;;;;;;4996906;28;20041;-57
2022/03/10 13:23:27;;;;;;;3.65;0.52;;;;;;;;;;4997694;28;20049;-57
2022/03/10 13:25:54;;;;;;;2.00;0.95;;;;;;;;;;4997669;28;20037;-57
2022/03/10 13:28:19;;;;;;;3.53;0.52;;;;;;;;;;4995291;28;20411;-56
2022/03/10 13:30:46;;;;;;;1.17;0.57;;;;;;;;;;4996851;28;20030;-57
2022/03/10 13:33:12;;;;;;;1.85;0.80;;;;;;;;;;5028915;28;20046;-55
2022/03/10 13:35:39;;;;;;;0.60;0.30;;;;;;;;;;4997599;28;20133;-55
2022/03/10 13:38:05;;;;;;;1.40;0.45;;;;;;;;;;5018367;28;20145;-56
2022/03/10 13:40:32;;;;;;;2.90;0.80;;;;;;;;;;5001092;28;20784;-58
2022/03/10 13:43:00;;;;;;;1.90;0.70;;;;;;;;;;4998811;28;20049;-55
2022/03/10 13:45:26;;;;;;;1.27;0.43;;;;;;;;;;4999689;28;20042;-56
2022/03/10 13:47:53;;;;;;;0.73;0.55;;;;;;;;;;4996994;28;20048;-57
2022/03/10 13:50:21;;;;;;;2.10;0.80;;;;;;;;;;4997362;28;20045;-57
2022/03/10 13:52:55;;;;;;;0.73;0.40;;;;;;;;;;5000590;28;20044;-56
2022/03/10 13:55:29;;;;;;;2.40;0.63;;;;;;;;;;4999993;28;20041;-55
2022/03/10 13:57:56;;;;;;;1.75;0.55;;;;;;;;;;5000866;28;20069;-57
2022/03/10 14:00:28;;;;;;;2.03;0.68;;;;;;;;;;5000847;28;20499;-56
2022/03/10 14:02:55;;;;;;;0.88;0.40;;;;;;;;;;5001250;28;20037;-56
2022/03/10 14:05:21;;;;;;;1.55;0.60;;;;;;;;;;4997640;28;21688;-56
2022/03/10 14:07:51;;;;;;;3.67;1.15;;;;;;;;;;4998321;28;20041;-56
2022/03/10 14:10:26;;;;;;;2.20;0.75;;;;;;;;;;4996297;28;20408;-54
2022/03/10 14:12:53;;;;;;;2.60;0.80;;;;;;;;;;4997771;28;20038;-57
2022/03/10 14:15:26;;;;;;;3.65;0.70;;;;;;;;;;4995718;28;20038;-58
2022/03/10 14:17:55;;;;;;;2.33;1.10;;;;;;;;;;5001649;28;20117;-56
2022/03/10 14:20:21;;;;;;;4.93;0.82;;;;;;;;;;4997441;28;20049;-56
2022/03/10 14:22:47;;;;;;;1.45;0.57;;;;;;;;;;5000153;28;20049;-56
2022/03/10 14:25:14;;;;;;;3.25;0.77;;;;;;;;;;5004062;28;20110;-56
2022/03/10 14:27:44;;;;;;;4.82;0.90;;;;;;;;;;4997570;28;20195;-57
2022/03/10 14:30:11;;;;;;;15.77;1.27;;;;;;;;;;4997032;28;20056;-58
2022/03/10 14:32:37;;;;;;;2.65;0.85;;;;;;;;;;4998639;28;20093;-58
2022/03/10 14:35:03;;;;;;;2.20;0.70;;;;;;;;;;4997447;28;20042;-54
2022/03/10 14:37:29;;;;;;;2.45;0.93;;;;;;;;;;4996825;28;20046;-57
2022/03/10 14:39:55;;;;;;;3.63;0.85;;;;;;;;;;4995344;28;20050;-55
2022/03/10 14:42:21;;;;;;;6.70;1.10;;;;;;;;;;4995350;28;20042;-57
2022/03/10 14:44:47;;;;;;;9.85;1.30;;;;;;;;;;4995586;28;22443;-55
2022/03/10 14:47:13;;;;;;;2.67;0.60;;;;;;;;;;4991643;28;20045;-57
2022/03/10 14:49:40;;;;;;;2.67;0.63;;;;;;;;;;4997589;28;20357;-55
2022/03/10 14:52:06;;;;;;;3.78;0.80;;;;;;;;;;4999537;28;20046;-57
2022/03/10 14:54:32;;;;;;;3.83;1.08;;;;;;;;;;4997637;28;20048;-57